x

Bodega Bay - 48nm Nnw Of San Francisco, Ca (46013) Wave Buoy

12:50am - Sat 2nd Aug 2014 All times are PDT. -7 hours from GMT.

  • Sig Wave height 5.2ft
  • Peak Period 8s
  • Wind
    18mph, 20mph gusts
  • Sea Temp 55°f
  • Air Temp 55°f
  • Sea Pressure 1012.8mb
  • Bodega Bay - 48nm Nnw Of San Francisco, Ca
  • Bodega Bay - 48nm Nnw Of San Francisco, Ca

More Historic Weather Station data

Upgrade to MSW Pro to gain access to the past 30 days of data for over 8000 Wavebouys and Weather Stations around the globe.

Join Pro

Comparision Forecast

View Surf forecast
   
Sat 08/02 12:50am 5ft 8s  -  18 20 mph 1012.8mb 55f 55f
Fri 08/01 11:50pm 5ft 8s  -  18 22 mph 1012.8mb 55f 55f
10:50pm 5ft 8s  -  20 22 mph 1013.1mb 55f 55f
9:50pm 5ft 8s  -  20 27 mph 1012.7mb 55f 55f
8:50pm 5ft 8s  -  20 25 mph 1012.7mb 56f 55f
7:50pm 5ft 8s  -  18 22 mph 1012.8mb 56f 55f
6:50pm 5.5ft 8s  -  20 22 mph 1012.7mb 56f 55f
5:50pm 5ft 7s  -  16 20 mph 1013.1mb 55f 55f
4:50pm 5ft 7s  -  18 20 mph 1013.2mb 55f 55f
3:50pm 5ft 8s  -  16 18 mph 1014mb 55f 55f
2:50pm 5ft 8s  -  16 18 mph 1014.3mb 55f 55f
1:50pm 5ft 8s  -  13 18 mph 1014.1mb 55f 55f
12:50pm 5ft 8s  -  13 18 mph 1014.2mb 55f 54f
11:50am 5ft 8s  -  16 20 mph 1014.2mb 55f 54f
10:50am 4.5ft 8s  -  13 16 mph 1014.3mb 55f 54f
9:50am 5.5ft 8s  -  13 18 mph 1013.8mb 55f 54f
8:50am 6.5ft 8s  -  16 18 mph 1013.4mb 55f 54f
7:50am 6ft 8s  -  11 16 mph 1013.3mb 55f 54f
6:50am 6ft 8s  -  16 18 mph 1012.9mb 55f 54f
5:50am 6ft 7s  -  18 22 mph 1012.4mb 55f 55f
4:50am 6ft 7s  -  18 22 mph 1012.2mb 55f 56f
3:50am 5.5ft 7s  -  16 20 mph 1012.3mb 55f 56f
2:50am 5.5ft 6s  -  18 20 mph 1012.5mb 55f 56f
1:50am 6ft 7s  -  16 20 mph 1012.6mb 55f 56f
12:50am 6ft 6s  -  16 20 mph 1012.8mb 55f 57f
Thu 07/31 11:50pm 6ft 6s  -  18 22 mph 1012.8mb 55f 57f
10:50pm 6ft 7s  -  18 22 mph 1012.9mb 56f 57f
9:50pm 5ft 6s  -  18 20 mph 1013.2mb 56f 57f
8:50pm 4.5ft 5s  -  18 22 mph 1012.8mb 56f 57f
7:50pm 4ft 8s  -  16 20 mph 1012.6mb 56f 57f
6:50pm 4.5ft 7s  -  16 18 mph 1013.1mb 56f 56f
5:50pm 4.5ft 7s  -  16 18 mph 1013.6mb 56f 55f
4:50pm 4.5ft 7s  -  16 18 mph 1014mb 56f 55f
3:50pm 4.5ft 7s  -  13 16 mph 1014.6mb 56f 55f
2:50pm 4.5ft 7s  -  9 13 mph 1015mb 56f 55f
1:50pm 4.5ft 7s  -  9 11 mph 1015.5mb 56f 56f
12:50pm 4.5ft 7s  -  4 7 mph 1015.9mb 56f 55f
11:50am 4.5ft 8s  -  2 4 mph 1016.1mb 56f 54f
10:50am 4.5ft 7s  -   -  2 mph 1016mb 56f 54f
9:50am 4.5ft 8s  -  2
mph
1015.9mb 56f 53f
8:50am 4.5ft 8s  -  2 4 mph 1015.7mb 57f 53f
7:50am 5ft 8s  -   -  2 mph 1015.5mb 58f 53f
6:50am 5ft 8s  -  7 9 mph 1015mb 58f 54f
5:50am 5ft 7s  -  4 7 mph 1014.5mb 58f 53f
4:50am 5ft 8s  -  9 11 mph 1014.5mb 58f 54f
3:50am 5ft 8s  -  9 13 mph 1014.6mb 58f 54f
2:50am 4.5ft 7s  -  11 16 mph 1014.6mb 58f 55f
1:50am 5ft 8s  -  13 16 mph 1014.6mb 58f 55f
12:50am 5ft 6s  -  16 18 mph 1015mb 58f 55f
Wed 07/30 11:50pm 5.5ft 8s  -  16 18 mph 1014.8mb 58f 55f
10:50pm 5.5ft 8s  -  16 20 mph 1015.1mb 58f 55f
9:50pm 5ft 8s  -  18 20 mph 1015.4mb 58f 55f
8:50pm 5ft 8s  -  18 20 mph 1015.4mb 58f 54f
7:50pm 5ft 8s  -  16 18 mph 1015.4mb 58f 55f
6:50pm 5ft 8s  -  16 20 mph 1015.3mb 58f 55f
5:50pm 4.5ft 8s  -  18 20 mph 1015.3mb 59f 55f
4:50pm 5ft 8s  -  16 18 mph 1015.4mb 60f 55f
3:50pm 5ft 8s  -  13 18 mph 1015.8mb 60f 55f
2:50pm 5ft 8s  -  13 18 mph 1016.2mb 60f 56f
1:50pm 5.5ft 8s  -  11 13 mph 1016.6mb 59f 56f
12:50pm 6ft 8s  -  11 13 mph 1016.6mb 59f 56f
11:50am 5.5ft 8s  -  9 11 mph 1016.8mb 59f 56f
10:50am 5.5ft 8s  -  9 11 mph 1016.7mb 58f 55f
9:50am 6ft 8s  -  9 13 mph 1016.7mb 58f 55f
8:50am 6ft 8s  -  13 16 mph 1016.7mb 58f 55f
7:50am 5.5ft 8s  -  11 13 mph 1016.4mb 58f 56f
6:50am 6ft 8s  -  9 13 mph 1015.7mb 58f 55f
5:50am 5.5ft 8s  -  13 16 mph 1015.3mb 58f 55f
4:50am 6ft 8s  -  11 16 mph 1015.1mb 58f 55f
3:50am 5ft 7s  -  16 18 mph 1014.9mb 58f 55f
2:50am 5.5ft 8s  -  16 18 mph 1015.1mb 58f 54f
1:50am 5.5ft 8s  -  16 18 mph 1015.4mb 58f 54f
12:50am 6ft 8s  -  18 22 mph 1015.9mb 58f 55f
Tue 07/29 11:50pm 5.5ft 8s  -  20 22 mph 1015.9mb 58f 55f
10:50pm 6ft 8s  -  20 25 mph 1016.1mb 58f 55f
9:50pm 5ft 8s 5s 18 20 mph 1016.5mb 58f 55f
8:50pm 5ft 8s 5s 18 22 mph 1016.3mb 58f 55f
7:50pm 5ft 8s 5s 18 22 mph 1016.3mb 58f 55f
6:50pm 4.5ft 7s 5s 16 20 mph 1016.5mb 58f 55f
5:50pm 4.5ft 8s 6s 18 20 mph 1016.5mb 59f 55f
4:50pm 4.5ft 8s 6s 13 18 mph 1017mb 60f 55f
3:50pm 4.5ft 8s 6s 11 16 mph 1017.6mb 60f 56f
2:50pm 4.5ft 7s 6s 9 11 mph 1018.1mb 60f 55f
1:50pm 4.5ft 8s 6s 4 7 mph 1018.6mb 60f 55f
12:50pm 4.5ft 8s 6s 4 7 mph 1018.8mb 60f 55f
11:50am 4.5ft 8s 6s 2 4 mph 1018.8mb 60f 55f
10:50am 4ft 7s 6s 2 4 mph 1018.7mb 60f 54f
9:50am 3.5ft 6s 6s 2
mph
1018.7mb 60f 54f
8:50am 3.5ft 8s 6s 2 7 mph 1018.4mb 59f 53f